Time;durP1;ratioP1;P1;durP2;ratioP2;P2;SDS_P1;SDS_P2;PMS_P1;PMS_P2;Temp;Humidity;BMP_temperature;BMP_pressure;BME280_temperature;BME280_humidity;BME280_pressure;Samples;Min_cycle;Max_cycle;Signal;HPM_P1;HPM_P2
2023/10/24 00:02:06;;;;;;;1.50;1.13;;;;;;;12.39;91.05;94803.25;5087061;28;20209;-79
2023/10/24 00:04:32;;;;;;;0.98;0.80;;;;;;;12.30;90.81;94799.81;5079543;28;20211;-78
2023/10/24 00:07:00;;;;;;;3.03;1.35;;;;;;;12.25;90.68;94808.97;5093391;28;20241;-78
2023/10/24 00:09:26;;;;;;;0.30;0.30;;;;;;;12.30;90.50;94810.69;5092805;28;20199;-78
2023/10/24 00:11:53;;;;;;;0.40;0.40;;;;;;;12.29;90.32;94801.75;5088974;28;20251;-78
2023/10/24 00:14:21;;;;;;;2.25;1.20;;;;;;;12.26;90.52;94798.91;5084403;28;20221;-78
2023/10/24 00:16:49;;;;;;;1.77;0.88;;;;;;;12.19;90.97;94794.00;5093574;28;20234;-78
2023/10/24 00:19:16;;;;;;;0.20;0.20;;;;;;;12.12;91.42;94796.47;5093763;28;20214;-78
2023/10/24 00:21:43;;;;;;;1.27;1.08;;;;;;;12.10;91.89;94793.28;5084717;28;20206;-78
2023/10/24 00:24:11;;;;;;;0.20;0.20;;;;;;;12.12;92.10;94792.94;5085695;28;20208;-78
2023/10/24 00:26:38;;;;;;;0.40;0.40;;;;;;;12.05;91.93;94791.56;5093764;28;20244;-78
2023/10/24 00:29:05;;;;;;;0.22;0.22;;;;;;;12.01;92.02;94798.78;5087419;28;20289;-78
2023/10/24 00:31:32;;;;;;;0.10;0.10;;;;;;;11.93;92.53;94790.69;5084227;28;20632;-78
2023/10/24 00:34:00;;;;;;;0.32;0.32;;;;;;;11.90;93.07;94797.59;5083377;28;20216;-78
2023/10/24 00:36:27;;;;;;;0.20;0.20;;;;;;;11.81;93.69;94793.34;5087858;28;20545;-78
2023/10/24 00:38:53;;;;;;;0.75;0.52;;;;;;;11.79;93.66;94790.97;5076883;28;20211;-78
2023/10/24 00:41:20;;;;;;;0.20;0.20;;;;;;;11.74;93.98;94783.00;5082162;28;20213;-78
2023/10/24 00:43:47;;;;;;;0.63;0.63;;;;;;;11.73;94.48;94784.13;5102410;28;20235;-78
2023/10/24 00:46:14;;;;;;;0.57;0.57;;;;;;;11.77;94.16;94787.78;5092534;28;20235;-76
2023/10/24 00:48:41;;;;;;;2.83;1.50;;;;;;;11.73;94.14;94795.00;5083020;28;20199;-76
2023/10/24 00:51:09;;;;;;;0.20;0.20;;;;;;;11.75;94.22;94792.75;5075853;28;20233;-76
2023/10/24 00:53:37;;;;;;;0.20;0.20;;;;;;;11.83;93.89;94788.41;5092772;28;20202;-77
2023/10/24 00:56:04;;;;;;;0.30;0.30;;;;;;;11.77;93.82;94800.56;5090616;28;20290;-77
2023/10/24 00:58:31;;;;;;;0.30;0.30;;;;;;;11.76;93.52;94788.91;5092339;28;20238;-77
2023/10/24 01:01:00;;;;;;;0.60;0.60;;;;;;;11.79;93.59;94799.09;5092621;28;20574;-77
2023/10/24 01:03:28;;;;;;;0.13;0.13;;;;;;;11.74;93.77;94791.16;5092449;28;20211;-77
2023/10/24 01:05:56;;;;;;;1.08;0.82;;;;;;;11.79;93.24;94790.16;5091123;28;20708;-77
2023/10/24 01:08:24;;;;;;;0.30;0.30;;;;;;;11.71;93.86;94797.22;5090930;28;20210;-76
2023/10/24 01:10:51;;;;;;;3.85;1.88;;;;;;;11.67;94.61;94801.72;5092089;28;20199;-76
2023/10/24 01:13:18;;;;;;;1.08;0.98;;;;;;;11.68;94.76;94795.19;5088097;28;20199;-77
2023/10/24 01:15:44;;;;;;;3.13;1.65;;;;;;;11.62;95.34;94793.78;5092541;28;20582;-77
2023/10/24 01:18:11;;;;;;;4.03;1.40;;;;;;;11.62;95.77;94791.06;5091587;28;20198;-76
2023/10/24 01:20:39;;;;;;;1.70;1.20;;;;;;;11.63;96.51;94798.88;5092078;28;20365;-76
2023/10/24 01:23:08;;;;;;;2.35;1.58;;;;;;;11.64;96.77;94796.94;5091603;28;20562;-76
2023/10/24 01:25:39;;;;;;;1.52;1.05;;;;;;;11.66;96.98;94786.56;5092298;28;20194;-78
2023/10/24 01:28:06;;;;;;;0.20;0.20;;;;;;;11.63;96.35;94787.22;5082793;28;20199;-78
2023/10/24 01:30:34;;;;;;;0.20;0.20;;;;;;;11.59;96.83;94797.16;5083048;28;20203;-78
2023/10/24 01:33:01;;;;;;;4.60;0.95;;;;;;;11.55;97.07;94788.88;5074322;28;20223;-78
2023/10/24 01:35:28;;;;;;;0.50;0.50;;;;;;;11.55;96.58;94796.22;5079229;28;20206;-78
2023/10/24 01:37:55;;;;;;;0.30;0.30;;;;;;;11.62;94.99;94791.84;5078914;28;20207;-78
2023/10/24 01:40:23;;;;;;;0.20;0.20;;;;;;;11.51;95.26;94784.44;5079046;28;20555;-78
2023/10/24 01:42:50;;;;;;;0.20;0.20;;;;;;;11.49;95.90;94778.53;5073293;28;20221;-78
2023/10/24 01:45:17;;;;;;;0.20;0.20;;;;;;;11.42;96.67;94786.41;5072175;28;20231;-78
2023/10/24 01:47:43;;;;;;;0.40;0.40;;;;;;;11.30;97.92;94779.78;5081169;28;20214;-78
2023/10/24 01:50:11;;;;;;;0.35;0.35;;;;;;;11.29;98.59;94783.63;5084018;28;20786;-78
2023/10/24 01:52:38;;;;;;;0.32;0.32;;;;;;;11.29;99.00;94782.81;5073110;28;20587;-79
2023/10/24 01:55:06;;;;;;;0.30;0.30;;;;;;;11.23;99.13;94793.06;5075435;28;20543;-79
2023/10/24 01:57:36;;;;;;;1.48;1.17;;;;;;;11.27;99.34;94780.44;5087863;28;20271;-79
2023/10/24 02:00:03;;;;;;;0.25;0.25;;;;;;;11.31;100.00;94784.09;5081183;28;20670;-79
2023/10/24 02:02:30;;;;;;;0.20;0.20;;;;;;;11.29;99.44;94783.63;5081296;28;20566;-79
2023/10/24 02:04:56;;;;;;;0.30;0.30;;;;;;;11.29;99.89;94782.81;5084412;28;20222;-78
2023/10/24 02:07:27;;;;;;;0.20;0.20;;;;;;;11.25;99.41;94779.97;5078084;28;20227;-79
2023/10/24 02:09:54;;;;;;;0.22;0.22;;;;;;;11.24;99.61;94775.66;5081776;28;20206;-79
2023/10/24 02:12:20;;;;;;;0.40;0.40;;;;;;;11.21;99.78;94770.88;5080812;28;20226;-78
2023/10/24 02:14:49;;;;;;;0.40;0.40;;;;;;;11.24;99.28;94770.22;5076780;28;20199;-78
2023/10/24 02:17:15;;;;;;;0.20;0.20;;;;;;;11.20;98.89;94780.16;5083614;28;20206;-77
2023/10/24 02:19:42;;;;;;;0.40;0.40;;;;;;;11.16;99.51;94779.22;5078288;28;20202;-78
2023/10/24 02:22:09;;;;;;;0.30;0.30;;;;;;;11.19;99.71;94778.56;5077397;28;20199;-77
2023/10/24 02:24:36;;;;;;;0.30;0.30;;;;;;;11.21;99.85;94776.31;5079223;28;20563;-77
2023/10/24 02:27:03;;;;;;;1.35;0.95;;;;;;;11.18;99.94;94781.63;5076885;28;20191;-77
2023/10/24 02:29:33;;;;;;;0.20;0.20;;;;;;;11.11;100.00;94779.41;5080567;28;20263;-77
2023/10/24 02:32:01;;;;;;;1.25;0.63;;;;;;;11.15;100.00;94788.47;5074320;28;20290;-77
2023/10/24 02:34:28;;;;;;;0.73;0.73;;;;;;;11.14;99.84;94776.03;5086404;28;20199;-78
2023/10/24 02:36:55;;;;;;;0.25;0.25;;;;;;;11.28;99.22;94779.31;5083282;28;20667;-78
2023/10/24 02:39:21;;;;;;;0.65;0.63;;;;;;;11.25;98.88;94782.66;5079526;28;20682;-77
2023/10/24 02:41:48;;;;;;;0.20;0.20;;;;;;;11.23;98.03;94775.97;5079772;28;20211;-77
2023/10/24 02:44:15;;;;;;;0.30;0.30;;;;;;;11.19;97.69;94780.50;5077421;28;20207;-77
2023/10/24 02:46:42;;;;;;;0.82;0.82;;;;;;;11.15;98.00;94793.09;5074902;28;20226;-78
2023/10/24 02:49:10;;;;;;;1.40;1.08;;;;;;;11.06;98.28;94790.44;5085714;28;20198;-77
2023/10/24 02:51:37;;;;;;;0.10;0.10;;;;;;;11.11;98.54;94792.94;5092585;28;20214;-77
2023/10/24 02:54:04;;;;;;;0.73;0.73;;;;;;;11.04;98.42;94798.09;5078028;28;20203;-77
2023/10/24 02:56:31;;;;;;;0.73;0.68;;;;;;;10.94;98.45;94793.03;5074862;28;20207;-77
2023/10/24 02:58:58;;;;;;;1.27;1.15;;;;;;;10.96;98.86;94802.44;5084205;28;20658;-76
2023/10/24 03:01:25;;;;;;;2.33;0.73;;;;;;;10.94;99.05;94804.66;5080768;28;20211;-77
2023/10/24 03:03:51;;;;;;;0.20;0.20;;;;;;;10.94;99.30;94801.16;5083315;28;20209;-77
2023/10/24 03:06:20;;;;;;;0.20;0.20;;;;;;;10.96;99.30;94807.06;5090522;28;20690;-77
2023/10/24 03:08:47;;;;;;;0.63;0.63;;;;;;;10.93;99.12;94803.06;5096733;28;20228;-77
2023/10/24 03:11:21;;;;;;;0.25;0.25;;;;;;;10.92;98.40;94806.13;5085378;28;20214;-76
2023/10/24 03:13:48;;;;;;;3.28;1.60;;;;;;;10.89;98.89;94814.91;5095366;28;20240;-77
2023/10/24 03:16:15;;;;;;;1.55;1.08;;;;;;;10.89;99.68;94813.00;5082555;28;20240;-77
2023/10/24 03:18:41;;;;;;;0.30;0.30;;;;;;;10.89;99.82;94820.31;5080276;28;20205;-77
2023/10/24 03:21:08;;;;;;;0.20;0.20;;;;;;;10.87;100.00;94819.84;5084046;28;20198;-77
2023/10/24 03:23:37;;;;;;;1.98;1.23;;;;;;;10.89;100.00;94821.13;5090290;28;20221;-77
2023/10/24 03:26:05;;;;;;;10.27;5.95;;;;;;;10.85;100.00;94833.72;5085224;28;20256;-77
2023/10/24 03:28:32;;;;;;;2.95;1.92;;;;;;;10.87;100.00;94827.97;5075829;28;20202;-77
2023/10/24 03:31:03;;;;;;;3.38;1.77;;;;;;;10.89;100.00;94831.16;5095513;28;20368;-77
2023/10/24 03:33:31;;;;;;;4.32;2.33;;;;;;;10.92;100.00;94833.22;5097376;28;20306;-76
2023/10/24 03:35:58;;;;;;;0.55;0.55;;;;;;;10.93;100.00;94829.41;5090651;28;20560;-78
2023/10/24 03:38:26;;;;;;;0.40;0.40;;;;;;;10.95;100.00;94838.78;5083184;28;20214;-76
2023/10/24 03:40:55;;;;;;;0.20;0.20;;;;;;;10.95;100.00;94832.56;5091297;28;20294;-77
2023/10/24 03:43:22;;;;;;;0.52;0.52;;;;;;;10.95;100.00;94843.41;5091023;28;20217;-76
2023/10/24 03:45:49;;;;;;;1.00;0.70;;;;;;;10.91;100.00;94837.06;5079108;28;20230;-76
2023/10/24 03:48:16;;;;;;;3.60;1.05;;;;;;;10.88;100.00;94837.69;5097324;28;20620;-77
2023/10/24 03:50:43;;;;;;;0.20;0.20;;;;;;;10.85;100.00;94843.75;5086694;28;20217;-77
2023/10/24 03:53:10;;;;;;;14.00;1.88;;;;;;;10.81;100.00;94837.38;5086889;28;20287;-76
2023/10/24 03:55:37;;;;;;;0.73;0.73;;;;;;;10.81;100.00;94834.69;5093342;28;20202;-76
2023/10/24 03:58:06;;;;;;;0.52;0.45;;;;;;;10.81;100.00;94846.31;5094440;28;20300;-76
2023/10/24 04:00:33;;;;;;;0.30;0.30;;;;;;;10.74;100.00;94837.09;5091790;28;21128;-77
2023/10/24 04:03:02;;;;;;;0.20;0.20;;;;;;;10.77;100.00;94847.31;5085000;28;20561;-79
2023/10/24 04:05:33;;;;;;;1.75;1.00;;;;;;;10.78;100.00;94840.78;5084300;28;20206;-76
2023/10/24 04:08:01;;;;;;;0.47;0.47;;;;;;;10.77;100.00;94836.47;5088692;28;20305;-78
2023/10/24 04:10:28;;;;;;;0.20;0.20;;;;;;;10.75;100.00;94849.53;5079022;27;20268;-78
2023/10/24 04:12:55;;;;;;;0.40;0.40;;;;;;;10.73;100.00;94840.94;5072871;28;20234;-78
2023/10/24 04:15:23;;;;;;;2.65;1.83;;;;;;;10.71;100.00;94849.38;5074322;28;20312;-76
2023/10/24 04:17:51;;;;;;;0.35;0.35;;;;;;;10.74;100.00;94843.31;5093847;28;20279;-76
2023/10/24 04:20:17;;;;;;;2.20;1.52;;;;;;;10.71;100.00;94840.44;5090456;28;20677;-77
2023/10/24 04:22:44;;;;;;;2.85;1.67;;;;;;;10.68;100.00;94848.09;5077854;28;20219;-76
2023/10/24 04:25:11;;;;;;;2.88;1.60;;;;;;;10.67;100.00;94849.22;5073809;28;20210;-78
2023/10/24 04:27:38;;;;;;;1.85;1.55;;;;;;;10.58;100.00;94853.06;5073524;28;20225;-78
2023/10/24 04:30:07;;;;;;;4.63;1.83;;;;;;;10.56;100.00;94847.97;5075218;28;20210;-77
2023/10/24 04:32:35;;;;;;;2.40;1.60;;;;;;;10.63;100.00;94850.22;5082078;28;20273;-77
2023/10/24 04:35:02;;;;;;;0.50;0.50;;;;;;;10.54;100.00;94844.78;5073022;28;20210;-78
2023/10/24 04:37:29;;;;;;;0.13;0.13;;;;;;;10.56;100.00;94847.97;5073457;28;20213;-78
2023/10/24 04:39:56;;;;;;;0.20;0.20;;;;;;;10.58;100.00;94853.88;5072854;28;20272;-77
2023/10/24 04:42:23;;;;;;;0.40;0.40;;;;;;;10.60;100.00;94865.19;5072628;28;20218;-76
2023/10/24 04:44:50;;;;;;;2.50;0.63;;;;;;;10.61;100.00;94869.50;5072510;28;20652;-77
2023/10/24 04:47:17;;;;;;;0.55;0.50;;;;;;;10.59;100.00;94869.00;5070732;28;20609;-76
2023/10/24 04:49:45;;;;;;;1.17;0.68;;;;;;;10.61;100.00;94871.41;5070475;28;20210;-78
2023/10/24 04:52:13;;;;;;;0.70;0.70;;;;;;;10.65;100.00;94873.16;5070721;28;20234;-75
2023/10/24 04:54:40;;;;;;;0.30;0.30;;;;;;;10.70;100.00;94869.47;5082430;28;20225;-77
2023/10/24 04:59:51;;;;;;;0.65;0.65;;;;;;;10.83;100.00;94873.91;5542786;22;20253;-76
2023/10/24 05:02:18;;;;;;;2.05;1.25;;;;;;;10.87;100.00;94879.47;5027706;28;20637;-76
2023/10/24 05:04:46;;;;;;;0.60;0.60;;;;;;;10.89;99.82;94882.66;5029888;28;20307;-76
2023/10/24 05:07:13;;;;;;;1.95;0.43;;;;;;;10.89;99.13;94888.09;5020988;28;20227;-79
2023/10/24 05:09:40;;;;;;;0.50;0.50;;;;;;;10.92;99.35;94888.25;5032368;28;20209;-79
2023/10/24 05:12:07;;;;;;;0.43;0.43;;;;;;;10.95;97.91;94898.41;5032297;28;20212;-78
2023/10/24 05:14:34;;;;;;;0.25;0.25;;;;;;;11.10;97.21;94891.66;5031438;28;20208;-78
2023/10/24 05:17:01;;;;;;;4.40;1.40;;;;;;;11.45;95.52;94907.84;5029865;28;20212;-78
2023/10/24 05:19:28;;;;;;;0.38;0.38;;;;;;;11.98;92.66;94907.25;5031074;28;20259;-78
2023/10/24 05:21:56;;;;;;;1.17;0.90;;;;;;;12.42;90.55;94912.06;5031069;28;20215;-78
2023/10/24 05:24:23;;;;;;;2.65;1.00;;;;;;;12.65;89.08;94901.63;5028167;28;20657;-78
2023/10/24 05:26:50;;;;;;;2.72;0.57;;;;;;;12.76;88.10;94905.50;5017335;28;20212;-77
2023/10/24 05:29:16;;;;;;;0.20;0.20;;;;;;;12.93;86.51;94901.84;5030457;28;20204;-76
2023/10/24 05:31:43;;;;;;;0.15;0.15;;;;;;;13.13;85.30;94897.44;5031031;28;20208;-76
2023/10/24 05:34:10;;;;;;;0.38;0.38;;;;;;;13.78;84.18;94884.84;5030628;28;20236;-78
2023/10/24 05:36:37;;;;;;;3.30;0.82;;;;;;;14.42;81.66;94897.72;5027088;28;20227;-77
2023/10/24 05:39:05;;;;;;;1.45;0.55;;;;;;;15.18;78.61;94904.88;5027639;28;20227;-77
2023/10/24 05:41:32;;;;;;;0.30;0.30;;;;;;;15.76;76.44;94902.50;5028058;28;20218;-79
2023/10/24 05:43:59;;;;;;;0.68;0.40;;;;;;;15.72;75.68;94904.34;5027204;28;20718;-77
2023/10/24 05:46:26;;;;;;;3.20;0.65;;;;;;;16.16;75.18;94908.53;5029394;28;20209;-77
2023/10/24 05:48:53;;;;;;;0.47;0.47;;;;;;;16.51;73.41;94899.53;5029719;28;20653;-78
2023/10/24 05:51:24;;;;;;;1.13;0.90;;;;;;;17.02;71.10;94895.53;5028705;28;20204;-78
2023/10/24 05:53:51;;;;;;;0.40;0.40;;;;;;;16.92;70.81;94890.66;5030027;28;20228;-78
2023/10/24 05:56:19;;;;;;;0.43;0.43;;;;;;;17.25;71.28;94892.03;5029178;28;20200;-78
2023/10/24 05:58:46;;;;;;;0.30;0.30;;;;;;;17.97;68.35;94894.88;5029955;28;20215;-78
2023/10/24 06:01:13;;;;;;;0.75;0.73;;;;;;;18.68;66.15;94879.44;5028731;28;20287;-78
2023/10/24 06:03:40;;;;;;;0.40;0.40;;;;;;;18.99;63.77;94879.06;5029983;28;20572;-78
2023/10/24 06:06:07;;;;;;;3.88;1.73;;;;;;;18.99;64.00;94868.06;5027506;28;20211;-78
2023/10/24 06:08:34;;;;;;;2.22;1.80;;;;;;;18.63;64.81;94877.03;5014221;28;20304;-78
2023/10/24 06:11:03;;;;;;;7.45;1.77;;;;;;;18.51;63.73;94882.72;5022622;28;20201;-78
2023/10/24 06:13:32;;;;;;;2.97;1.90;;;;;;;18.14;65.04;94883.38;5029884;28;20232;-77
2023/10/24 06:16:07;;;;;;;2.45;1.00;;;;;;;17.97;65.72;94884.69;5029916;28;20204;-75
2023/10/24 06:18:34;;;;;;;3.33;1.85;;;;;;;17.36;67.38;94880.09;5014829;28;20211;-77
2023/10/24 06:21:04;;;;;;;9.30;0.73;;;;;;;16.84;69.83;94896.31;5030001;28;20645;-78
2023/10/24 06:23:31;;;;;;;0.50;0.50;;;;;;;16.50;70.55;94900.69;5031051;28;20664;-77
2023/10/24 06:25:58;;;;;;;0.75;0.75;;;;;;;16.21;71.39;94900.06;5030396;28;20216;-75
2023/10/24 06:28:25;;;;;;;2.15;1.40;;;;;;;16.34;71.14;94903.47;5028330;28;20562;-74
2023/10/24 06:30:59;;;;;;;0.40;0.40;;;;;;;16.59;69.72;94893.84;5030558;28;20216;-74
2023/10/24 06:33:27;;;;;;;0.63;0.63;;;;;;;15.99;71.03;94900.69;5028565;28;20312;-78
2023/10/24 06:35:55;;;;;;;0.20;0.20;;;;;;;16.26;70.51;94902.50;5030655;28;20628;-77
2023/10/24 06:38:21;;;;;;;0.43;0.43;;;;;;;16.47;69.52;94904.94;5026023;28;20240;-78
2023/10/24 06:40:49;;;;;;;0.40;0.40;;;;;;;16.25;69.97;94898.22;5012513;28;20204;-79
2023/10/24 06:43:16;;;;;;;0.52;0.52;;;;;;;16.61;68.90;94896.22;5030216;28;20219;-76
2023/10/24 06:45:43;;;;;;;0.98;0.63;;;;;;;16.25;69.97;94900.16;5030116;28;20212;-75
2023/10/24 06:48:11;;;;;;;5.32;1.75;;;;;;;16.26;69.81;94891.56;5027888;28;20211;-75
2023/10/24 06:50:39;;;;;;;0.20;0.20;;;;;;;16.60;69.19;94894.66;5030055;28;20215;-75
2023/10/24 06:53:08;;;;;;;0.52;0.52;;;;;;;16.83;68.87;94884.59;5030029;28;20323;-75
2023/10/24 06:55:35;;;;;;;1.63;1.05;;;;;;;16.82;69.16;94895.88;5027400;28;20219;-75
2023/10/24 06:58:03;;;;;;;0.35;0.35;;;;;;;16.87;68.96;94890.13;5017497;28;20212;-75
2023/10/24 07:00:30;;;;;;;2.42;1.23;;;;;;;16.88;70.10;94878.84;5027912;28;20355;-76
2023/10/24 07:02:57;;;;;;;0.47;0.47;;;;;;;16.91;69.36;94882.78;5028884;28;20650;-76
2023/10/24 07:05:26;;;;;;;0.50;0.50;;;;;;;16.74;69.15;94889.50;5029927;28;20208;-79
2023/10/24 07:07:53;;;;;;;0.43;0.43;;;;;;;16.73;69.95;94893.38;5030255;28;20613;-78
2023/10/24 07:10:20;;;;;;;0.30;0.30;;;;;;;16.59;70.47;94882.91;5030247;28;20666;-78
2023/10/24 07:12:49;;;;;;;1.00;0.75;;;;;;;16.95;70.31;94876.22;5029814;28;20246;-78
2023/10/24 07:15:16;;;;;;;3.33;1.35;;;;;;;17.29;68.92;94862.78;5028958;28;20303;-77
2023/10/24 07:17:43;;;;;;;1.20;0.90;;;;;;;17.15;69.22;94870.72;5029634;28;20231;-76
2023/10/24 07:20:11;;;;;;;0.70;0.68;;;;;;;17.11;68.49;94869.88;5030074;28;20208;-77
2023/10/24 07:22:39;;;;;;;0.73;0.60;;;;;;;17.04;68.61;94865.84;5030151;28;20208;-77
2023/10/24 07:25:07;;;;;;;0.10;0.10;;;;;;;16.75;69.42;94874.66;5030167;28;20207;-78
2023/10/24 07:27:34;;;;;;;0.95;0.63;;;;;;;16.95;69.92;94870.75;5029832;28;20211;-78
2023/10/24 07:30:01;;;;;;;2.00;1.15;;;;;;;17.20;68.47;94867.72;5029987;28;20265;-77
2023/10/24 07:32:28;;;;;;;0.85;0.85;;;;;;;17.11;69.05;94864.38;5029455;28;20216;-78
2023/10/24 07:34:56;;;;;;;0.47;0.47;;;;;;;17.44;67.17;94861.88;5029879;28;20227;-78
2023/10/24 07:37:23;;;;;;;0.30;0.30;;;;;;;17.46;67.97;94851.34;5029918;28;20216;-77
2023/10/24 07:39:51;;;;;;;0.52;0.52;;;;;;;17.56;66.59;94853.47;5030002;28;20236;-78
2023/10/24 07:42:18;;;;;;;6.32;1.08;;;;;;;17.55;68.11;94860.09;5030223;28;20239;-78
2023/10/24 07:44:45;;;;;;;2.67;1.05;;;;;;;17.60;67.76;94853.53;5030140;28;20215;-80
2023/10/24 07:47:12;;;;;;;0.28;0.28;;;;;;;17.75;66.83;94842.47;5030479;28;20208;-80
2023/10/24 07:49:39;;;;;;;2.70;1.77;;;;;;;18.01;66.31;94846.38;5029898;28;20208;-79
2023/10/24 07:52:06;;;;;;;5.15;1.95;;;;;;;18.43;64.83;94835.22;5030387;28;20212;-78
2023/10/24 07:54:33;;;;;;;0.63;0.38;;;;;;;18.42;65.16;94834.41;5029575;28;20223;-78
2023/10/24 07:57:02;;;;;;;4.70;1.20;;;;;;;18.57;64.12;94835.38;5029666;28;20201;-79
2023/10/24 07:59:29;;;;;;;0.25;0.22;;;;;;;18.53;64.02;94834.53;5029331;28;20222;-78
2023/10/24 08:01:57;;;;;;;0.75;0.57;;;;;;;18.60;63.62;94828.38;5028145;28;20248;-79
2023/10/24 08:04:25;;;;;;;0.38;0.38;;;;;;;18.76;63.57;94827.00;5028310;28;20216;-79
2023/10/24 08:06:52;;;;;;;0.43;0.43;;;;;;;19.05;61.71;94832.81;5028042;28;20295;-79
2023/10/24 08:09:19;;;;;;;0.77;0.50;;;;;;;19.20;61.15;94836.50;5028580;28;20259;-79
2023/10/24 08:11:46;;;;;;;1.38;0.82;;;;;;;19.09;61.68;94837.19;5028550;28;20212;-78
2023/10/24 08:14:14;;;;;;;8.27;1.90;;;;;;;19.28;60.75;94829.91;5030049;28;20590;-78
2023/10/24 08:16:41;;;;;;;3.33;2.05;;;;;;;18.73;62.38;94840.69;5032908;28;20303;-79
2023/10/24 08:19:08;;;;;;;3.00;1.75;;;;;;;18.88;62.68;94831.44;5031897;28;20220;-78
2023/10/24 08:21:34;;;;;;;1.70;1.60;;;;;;;18.98;62.51;94836.28;5032104;28;20258;-79
2023/10/24 08:24:01;;;;;;;0.50;0.50;;;;;;;19.22;62.59;94837.69;5032783;28;20215;-78
2023/10/24 08:26:28;;;;;;;0.32;0.32;;;;;;;18.93;62.65;94824.84;5032204;28;20638;-78
2023/10/24 08:28:55;;;;;;;0.40;0.40;;;;;;;18.81;63.29;94810.22;5032172;28;20282;-78
2023/10/24 08:31:23;;;;;;;0.40;0.40;;;;;;;19.41;62.21;94822.94;5032436;28;20262;-78
2023/10/24 08:33:50;;;;;;;3.10;2.00;;;;;;;19.58;61.73;94822.34;5032646;28;20232;-79
2023/10/24 08:36:16;;;;;;;3.22;2.40;;;;;;;19.93;60.91;94821.06;5031780;28;20208;-78
2023/10/24 08:38:43;;;;;;;1.08;1.05;;;;;;;19.45;61.43;94813.56;5032651;28;20529;-77
2023/10/24 08:41:10;;;;;;;0.50;0.50;;;;;;;19.65;61.23;94811.44;5033000;28;20212;-78
2023/10/24 08:43:37;;;;;;;5.53;2.13;;;;;;;19.77;60.78;94802.88;5032922;28;20213;-78
2023/10/24 08:46:06;;;;;;;2.38;1.80;;;;;;;19.88;60.90;94802.94;5032593;28;20215;-77
2023/10/24 08:48:35;;;;;;;2.05;1.65;;;;;;;19.55;59.71;94800.34;5033084;28;20571;-79
2023/10/24 08:51:02;;;;;;;3.75;1.52;;;;;;;19.53;61.06;94792.50;5032548;28;20311;-78
2023/10/24 08:53:29;;;;;;;3.78;1.75;;;;;;;19.12;61.25;94795.25;5014858;28;20227;-76
2023/10/24 08:55:57;;;;;;;3.63;1.17;;;;;;;19.65;59.93;94797.69;5033005;28;20204;-77
2023/10/24 08:58:25;;;;;;;3.47;1.05;;;;;;;19.87;58.35;94790.38;5032517;28;20212;-76
2023/10/24 09:00:52;;;;;;;4.20;1.42;;;;;;;20.05;58.48;94790.50;5032421;28;20248;-77
2023/10/24 09:03:19;;;;;;;1.83;1.10;;;;;;;20.23;58.09;94785.88;5031943;28;20251;-78
2023/10/24 09:05:48;;;;;;;3.60;1.10;;;;;;;20.23;58.67;94774.84;5032170;28;20215;-77
2023/10/24 09:08:16;;;;;;;1.10;1.08;;;;;;;20.30;59.59;94769.41;5032508;28;20215;-78
2023/10/24 09:10:43;;;;;;;1.20;1.02;;;;;;;20.62;58.34;94763.28;5033206;28;20342;-78
2023/10/24 09:13:10;;;;;;;2.95;1.80;;;;;;;20.94;56.54;94758.63;5032199;28;20588;-78
2023/10/24 09:15:39;;;;;;;1.02;0.88;;;;;;;20.58;56.85;94758.53;5032533;28;20549;-79
2023/10/24 09:18:06;;;;;;;1.83;1.50;;;;;;;20.47;56.93;94763.22;5032531;28;20676;-77
2023/10/24 09:20:34;;;;;;;5.82;1.40;;;;;;;20.39;57.01;94756.09;5032333;28;20212;-78
2023/10/24 09:23:06;;;;;;;3.25;1.73;;;;;;;20.38;57.00;94760.03;5032191;28;20575;-79
2023/10/24 09:25:33;;;;;;;2.88;1.67;;;;;;;20.66;56.72;94753.03;5031151;28;20209;-80
2023/10/24 09:28:17;;;;;;;1.75;1.30;;;;;;;20.73;56.25;94753.09;5014483;28;20235;-77
2023/10/24 09:30:44;;;;;;;1.70;1.40;;;;;;;20.73;55.91;94753.88;5032165;28;20209;-79
2023/10/24 09:33:11;;;;;;;1.20;1.05;;;;;;;20.59;56.85;94759.34;5032147;28;20731;-79
2023/10/24 09:35:38;;;;;;;3.95;1.60;;;;;;;20.82;55.95;94757.03;5031964;28;20635;-78
2023/10/24 09:38:07;;;;;;;1.83;1.05;;;;;;;21.05;55.53;94742.91;5032041;28;20224;-77
2023/10/24 09:40:35;;;;;;;2.67;1.63;;;;;;;20.94;54.92;94742.91;5031634;28;20246;-72
2023/10/24 09:43:11;;;;;;;1.92;0.90;;;;;;;21.43;54.02;94741.41;5032118;28;20303;-72
2023/10/24 09:45:41;;;;;;;1.58;1.30;;;;;;;22.30;52.15;94738.09;5032180;28;20541;-73
2023/10/24 09:48:09;;;;;;;0.68;0.68;;;;;;;21.78;52.52;94735.06;5031592;28;20205;-74
2023/10/24 09:50:39;;;;;;;3.03;1.27;;;;;;;21.44;53.08;94733.94;5032187;28;20631;-74
2023/10/24 09:53:07;;;;;;;4.30;1.77;;;;;;;22.43;50.80;94736.47;5032093;28;20255;-74
2023/10/24 09:55:36;;;;;;;2.53;1.30;;;;;;;22.59;50.93;94728.53;5031995;28;20599;-74
2023/10/24 09:58:05;;;;;;;3.38;1.85;;;;;;;22.44;51.41;94728.97;5031432;28;20295;-74
2023/10/24 10:00:32;;;;;;;2.50;1.30;;;;;;;22.58;51.26;94720.63;5031177;28;20244;-73
2023/10/24 10:03:00;;;;;;;5.60;1.50;;;;;;;22.20;51.25;94722.38;5031559;28;20315;-74
2023/10/24 10:05:29;;;;;;;2.53;1.60;;;;;;;22.13;50.99;94717.69;5031052;28;20263;-74
2023/10/24 10:07:58;;;;;;;3.22;1.63;;;;;;;22.26;51.66;94715.28;5031490;28;20652;-72
2023/10/24 10:10:27;;;;;;;1.98;1.35;;;;;;;22.06;51.14;94720.44;5031267;28;20235;-74
2023/10/24 10:12:59;;;;;;;1.40;1.23;;;;;;;22.30;50.61;94718.78;5031517;28;20239;-74
2023/10/24 10:15:50;;;;;;;1.10;0.98;;;;;;;22.17;50.81;94715.69;5030731;28;20267;-72
2023/10/24 10:18:32;;;;;;;0.95;0.80;;;;;;;21.88;50.90;94706.66;5030762;28;20205;-74
2023/10/24 10:21:11;;;;;;;1.85;0.93;;;;;;;22.07;50.43;94701.91;5031452;28;20215;-73
2023/10/24 10:24:07;;;;;;;3.60;1.33;;;;;;;22.21;50.74;94704.63;5030661;28;20594;-73
2023/10/24 10:27:00;;;;;;;3.17;1.05;;;;;;;22.15;50.79;94697.94;5029562;28;20220;-73
2023/10/24 10:29:41;;;;;;;1.95;1.17;;;;;;;22.65;49.84;94691.03;5031067;28;20281;-72
2023/10/24 10:32:20;;;;;;;2.17;1.30;;;;;;;22.74;49.28;94684.25;5019683;28;20612;-72
2023/10/24 10:34:47;;;;;;;7.03;2.40;;;;;;;23.10;49.54;94684.84;5031056;28;20228;-71
2023/10/24 10:37:14;;;;;;;3.83;1.58;;;;;;;22.82;49.16;94686.63;5031075;28;20219;-74
2023/10/24 10:39:40;;;;;;;3.80;1.58;;;;;;;22.83;49.64;94670.81;5030720;28;20216;-74
2023/10/24 10:42:45;;;;;;;2.67;1.20;;;;;;;22.40;49.85;94671.03;5031174;28;20208;-73
2023/10/24 10:45:30;;;;;;;3.58;1.90;;;;;;;21.89;51.04;94663.31;5030779;28;20212;-74
2023/10/24 10:47:59;;;;;;;2.47;1.77;;;;;;;22.40;50.20;94660.00;5031061;28;20258;-73
2023/10/24 10:50:30;;;;;;;3.53;1.55;;;;;;;22.51;50.44;94660.72;5030854;28;20581;-78
2023/10/24 10:53:04;;;;;;;3.78;1.55;;;;;;;22.54;49.98;94657.16;5030478;28;20568;-78
2023/10/24 10:55:36;;;;;;;2.17;1.63;;;;;;;22.55;48.91;94650.44;5030222;28;20216;-78
2023/10/24 10:58:08;;;;;;;2.72;1.30;;;;;;;22.12;49.84;94638.06;5018235;28;20671;-78
2023/10/24 11:00:49;;;;;;;2.80;1.63;;;;;;;22.57;49.00;94647.25;5030047;28;20723;-78
2023/10/24 11:03:37;;;;;;;1.08;0.88;;;;;;;22.96;48.56;94639.53;5030123;28;20208;-78
2023/10/24 11:06:09;;;;;;;2.30;1.45;;;;;;;22.90;47.92;94634.84;5017597;28;20208;-78
2023/10/24 11:08:35;;;;;;;3.70;1.92;;;;;;;22.63;48.36;94629.09;5030484;28;20294;-77
2023/10/24 11:11:02;;;;;;;1.63;1.27;;;;;;;22.93;48.00;94626.53;5030257;28;20274;-78
2023/10/24 11:13:33;;;;;;;3.15;1.35;;;;;;;22.70;48.45;94618.78;5030203;28;20208;-78
2023/10/24 11:16:03;;;;;;;6.38;1.67;;;;;;;22.64;48.37;94619.63;5030252;28;20282;-78
2023/10/24 11:18:31;;;;;;;1.63;0.80;;;;;;;23.04;47.71;94615.41;5012268;28;20684;-78
2023/10/24 11:20:58;;;;;;;2.33;1.38;;;;;;;22.88;47.73;94606.84;5030155;28;20299;-78
2023/10/24 11:23:25;;;;;;;3.75;1.65;;;;;;;22.97;47.63;94604.38;5029960;28;20660;-78
2023/10/24 11:25:54;;;;;;;2.25;1.33;;;;;;;23.47;46.68;94581.81;5030098;28;20235;-77
2023/10/24 11:28:22;;;;;;;1.40;1.30;;;;;;;23.48;46.46;94575.88;5030194;28;20295;-77
2023/10/24 11:30:49;;;;;;;1.80;1.40;;;;;;;23.58;45.78;94583.31;5030044;28;20211;-77
2023/10/24 11:33:18;;;;;;;2.22;1.27;;;;;;;23.32;45.65;94593.03;5026259;28;20308;-79
2023/10/24 11:35:46;;;;;;;4.20;1.20;;;;;;;23.50;45.95;94581.00;5021233;28;20632;-78
2023/10/24 11:38:14;;;;;;;2.15;1.42;;;;;;;23.60;45.55;94577.38;5030180;28;20576;-76
2023/10/24 11:40:41;;;;;;;1.83;1.02;;;;;;;23.88;45.78;94579.81;5029716;28;20216;-79